Time;durP1;ratioP1;P1;durP2;ratioP2;P2;SDS_P1;SDS_P2;PMS_P1;PMS_P2;Temp;Humidity;BMP_temperature;BMP_pressure;BME280_temperature;BME280_humidity;BME280_pressure;Samples;Min_cycle;Max_cycle;Signal;HPM_P1;HPM_P2
2023/08/21 00:01:37;;;;;;;2.78;1.85;;;23.00;99.90;;;23.05;66.85;101784.75;4933810;28;97604;-46
2023/08/21 00:04:03;;;;;;;2.15;1.95;;;23.00;99.90;;;23.05;66.74;101780.22;4933692;28;98519;-47
2023/08/21 00:06:29;;;;;;;3.95;1.83;;;23.00;99.90;;;23.09;66.39;101780.84;4935549;28;98100;-46
2023/08/21 00:08:55;;;;;;;3.80;1.80;;;23.10;99.90;;;23.07;66.58;101783.66;4931121;28;97141;-48
2023/08/21 00:11:21;;;;;;;3.65;2.10;;;23.00;99.90;;;23.09;66.74;101797.88;4947906;28;103562;-47
2023/08/21 00:13:49;;;;;;;5.25;1.95;;;23.00;99.90;;;23.09;66.27;101791.63;4954432;28;97144;-47
2023/08/21 00:16:16;;;;;;;2.75;2.35;;;23.00;99.90;;;23.09;66.63;101799.69;4951766;28;102828;-45
2023/08/21 00:18:42;;;;;;;5.13;2.45;;;23.00;99.90;;;23.07;66.64;101794.44;4953533;28;100006;-46
2023/08/21 00:21:08;;;;;;;3.65;2.22;;;22.90;99.90;;;23.06;66.52;101802.63;4945982;28;97225;-46
2023/08/21 00:23:33;;;;;;;3.58;2.17;;;22.90;99.90;;;23.04;66.76;101799.16;4951620;28;100270;-49
2023/08/21 00:26:00;;;;;;;2.63;2.15;;;22.90;99.90;;;23.01;66.84;101794.00;4952134;28;107921;-48
2023/08/21 00:28:25;;;;;;;3.30;2.00;;;22.80;99.90;;;23.00;66.89;101797.66;4948159;28;97412;-45
2023/08/21 00:30:51;;;;;;;3.53;2.20;;;22.80;99.90;;;23.00;67.23;101786.88;4951730;28;97401;-47
2023/08/21 00:33:17;;;;;;;2.65;2.13;;;22.80;99.90;;;22.99;67.28;101787.84;4954339;28;97800;-45
2023/08/21 00:35:43;;;;;;;3.40;2.28;;;22.80;99.90;;;22.93;68.19;101786.47;4951472;28;97594;-46
2023/08/21 00:38:08;;;;;;;3.33;2.33;;;22.70;99.90;;;22.93;68.42;101785.59;4953660;28;98068;-45
2023/08/21 00:40:34;;;;;;;2.78;2.10;;;22.70;99.90;;;22.89;67.86;101790.34;4952305;28;101730;-46
2023/08/21 00:43:00;;;;;;;2.40;2.20;;;22.70;99.90;;;22.88;67.58;101787.75;4951805;28;100276;-46
2023/08/21 00:45:26;;;;;;;2.53;2.15;;;22.80;99.90;;;22.88;67.81;101782.38;4952767;28;97238;-46
2023/08/21 00:47:52;;;;;;;2.38;1.75;;;22.80;99.90;;;22.91;67.88;101783.03;4954584;28;110438;-46
2023/08/21 00:50:18;;;;;;;2.45;2.25;;;22.80;99.90;;;22.91;67.71;101787.53;4950198;28;97296;-45
2023/08/21 00:52:48;;;;;;;4.53;2.53;;;22.80;99.90;;;22.91;67.58;101782.16;4956290;28;97547;-48
2023/08/21 00:55:14;;;;;;;1.98;1.77;;;22.90;99.90;;;22.90;67.42;101780.44;4950164;28;100345;-49
2023/08/21 00:57:41;;;;;;;2.90;2.10;;;22.90;99.90;;;22.93;67.49;101785.59;4953183;28;96987;-48
2023/08/21 01:00:10;;;;;;;3.40;2.05;;;22.90;99.90;;;22.95;67.19;101779.13;4951029;28;97440;-44
2023/08/21 01:02:36;;;;;;;5.63;2.20;;;22.90;99.90;;;22.97;67.13;101781.72;4951861;28;96983;-47
2023/08/21 01:05:02;;;;;;;1.90;1.70;;;22.90;99.90;;;22.97;67.09;101787.97;4949914;28;97426;-49
2023/08/21 01:07:29;;;;;;;2.78;2.15;;;22.90;99.90;;;22.98;67.42;101788.81;4952307;28;96712;-45
2023/08/21 01:10:16;;;;;;;2.40;1.92;;;22.80;99.90;;;22.99;67.74;101785.16;4950193;28;97108;-47
2023/08/21 01:13:13;;;;;;;2.03;1.83;;;22.80;99.90;;;22.93;67.46;101785.59;4952960;28;97510;-45
2023/08/21 01:15:39;;;;;;;4.30;2.58;;;22.80;99.90;;;22.90;67.82;101785.81;4942520;28;101969;-48
2023/08/21 01:18:07;;;;;;;2.00;1.80;;;22.80;99.90;;;22.93;67.61;101780.22;4948802;28;97747;-44
2023/08/21 01:20:33;;;;;;;2.08;1.80;;;22.80;99.90;;;22.91;67.51;101785.72;4950759;28;101847;-45
2023/08/21 01:23:07;;;;;;;2.00;1.75;;;22.80;99.90;;;22.89;67.48;101784.97;4951898;28;96950;-47
2023/08/21 01:25:33;;;;;;;2.90;2.33;;;22.80;99.90;;;22.92;67.33;101783.88;4951059;28;96955;-45
2023/08/21 01:27:59;;;;;;;2.75;2.28;;;22.80;99.90;;;22.93;67.37;101783.78;4947883;28;97602;-46
2023/08/21 01:30:28;;;;;;;4.07;2.30;;;22.80;99.90;;;22.94;67.10;101781.94;4952171;28;98367;-45
2023/08/21 01:32:57;;;;;;;2.22;1.73;;;22.90;99.90;;;22.95;67.33;101789.91;4949731;28;97157;-46
2023/08/21 01:35:24;;;;;;;4.35;2.13;;;22.80;99.90;;;22.90;67.31;101788.50;4947902;28;96834;-48
2023/08/21 01:37:50;;;;;;;3.17;2.33;;;22.80;99.90;;;22.83;67.85;101797.00;4953592;28;111086;-50
2023/08/21 01:40:23;;;;;;;4.03;2.30;;;22.60;99.90;;;22.83;68.40;101806.88;4950239;28;97483;-47
2023/08/21 01:42:49;;;;;;;6.70;2.65;;;22.60;99.90;;;22.81;68.42;101796.22;4950368;28;96964;-48
2023/08/21 01:45:16;;;;;;;4.43;2.20;;;22.60;99.90;;;22.79;68.28;101794.59;4952835;28;113403;-46
2023/08/21 01:47:42;;;;;;;1.70;1.60;;;22.60;99.90;;;22.79;67.99;101795.44;4949668;28;97280;-45
2023/08/21 01:50:08;;;;;;;3.08;2.20;;;22.60;99.90;;;22.81;68.19;101792.66;4951912;28;97127;-47
2023/08/21 01:52:34;;;;;;;3.85;2.42;;;22.70;99.90;;;22.84;67.60;101793.34;4951781;28;97420;-45
2023/08/21 01:55:00;;;;;;;2.55;1.80;;;22.70;99.90;;;22.82;67.69;101789.00;4948021;28;120808;-45
2023/08/21 01:57:26;;;;;;;4.00;2.40;;;22.60;99.90;;;22.81;67.06;101800.72;4950155;28;106253;-46
2023/08/21 01:59:51;;;;;;;2.42;1.95;;;22.60;99.90;;;22.76;68.05;101801.06;4950562;28;97368;-45
2023/08/21 02:02:17;;;;;;;3.58;2.30;;;22.60;99.90;;;22.72;68.21;101793.31;4952112;28;99706;-48
2023/08/21 02:04:43;;;;;;;2.00;1.80;;;22.50;99.90;;;22.68;68.25;101792.63;4947828;28;130819;-45
2023/08/21 02:07:08;;;;;;;3.20;2.13;;;22.40;99.90;;;22.66;68.54;101797.25;4948087;28;116799;-46
2023/08/21 02:09:34;;;;;;;2.35;1.85;;;22.40;99.90;;;22.68;68.37;101797.16;4946917;28;103183;-46
2023/08/21 02:12:01;;;;;;;2.58;1.63;;;22.40;99.90;;;22.68;68.52;101797.16;4956474;28;97256;-44
2023/08/21 02:14:28;;;;;;;1.92;1.50;;;22.50;99.90;;;22.67;68.25;101790.91;4949787;28;98605;-46
2023/08/21 02:16:53;;;;;;;2.13;1.95;;;22.50;99.90;;;22.67;68.24;101785.53;4950158;28;97284;-46
2023/08/21 02:19:19;;;;;;;1.77;1.58;;;22.60;99.90;;;22.69;68.14;101788.97;4951499;28;107544;-45
2023/08/21 02:21:45;;;;;;;1.93;1.63;;;22.60;99.90;;;22.73;67.80;101790.50;4951723;28;104439;-45
2023/08/21 02:24:11;;;;;;;2.58;1.65;;;22.60;99.90;;;22.77;66.98;101791.16;4948778;28;98880;-47
2023/08/21 02:26:36;;;;;;;3.50;2.13;;;22.60;99.90;;;22.75;67.37;101793.94;4950251;28;105286;-45
2023/08/21 02:29:03;;;;;;;2.97;2.33;;;22.60;99.90;;;22.71;67.28;101792.44;4950651;28;99223;-48
2023/08/21 02:31:29;;;;;;;4.80;2.08;;;22.50;99.90;;;22.70;67.92;101789.84;4950860;28;96968;-45
2023/08/21 02:33:55;;;;;;;4.40;2.00;;;22.40;99.90;;;22.69;68.03;101788.97;4939652;28;99277;-45
2023/08/21 02:36:21;;;;;;;2.33;1.85;;;22.40;99.90;;;22.68;68.07;101781.03;4948706;28;97042;-45
2023/08/21 02:38:46;;;;;;;1.65;1.55;;;22.50;99.90;;;22.68;68.04;101776.50;4951316;28;97703;-46
2023/08/21 02:41:12;;;;;;;1.95;1.75;;;22.50;99.90;;;22.67;67.97;101769.41;4950894;28;96979;-45
2023/08/21 02:43:38;;;;;;;2.97;2.50;;;22.50;99.90;;;22.72;67.75;101767.28;4952153;28;98320;-45
2023/08/21 02:46:03;;;;;;;2.30;1.88;;;22.60;99.90;;;22.74;66.60;101769.84;4948936;28;119451;-45
2023/08/21 02:48:29;;;;;;;5.20;2.07;;;22.60;99.90;;;22.68;66.68;101776.50;4949982;28;97427;-46
2023/08/21 02:50:55;;;;;;;3.35;1.90;;;22.50;99.90;;;22.66;67.91;101770.38;4951478;28;100162;-46
2023/08/21 02:53:21;;;;;;;2.28;1.90;;;22.40;99.90;;;22.67;67.93;101773.91;4947353;28;97622;-46
2023/08/21 02:55:46;;;;;;;2.10;1.70;;;22.50;99.90;;;22.69;68.03;101772.84;4952928;28;120929;-47
2023/08/21 02:58:12;;;;;;;3.25;2.00;;;22.50;99.90;;;22.68;67.16;101773.81;4950718;28;97515;-46
2023/08/21 03:00:38;;;;;;;3.37;2.40;;;22.50;99.90;;;22.61;66.54;101775.22;4950591;28;97446;-46
2023/08/21 03:03:04;;;;;;;2.43;2.00;;;22.30;99.90;;;22.54;67.14;101780.13;4951207;28;99845;-46
2023/08/21 03:05:30;;;;;;;4.07;2.27;;;22.20;99.90;;;22.55;68.50;101781.84;4947148;28;101322;-45
2023/08/21 03:07:55;;;;;;;5.43;1.83;;;22.20;99.90;;;22.57;68.41;101779.09;4950782;28;97003;-49
2023/08/21 03:10:23;;;;;;;3.35;2.10;;;22.30;99.90;;;22.55;67.80;101775.63;4951337;28;96967;-46
2023/08/21 03:12:49;;;;;;;8.10;2.15;;;22.30;99.90;;;22.55;67.62;101776.47;4951403;28;97151;-47
2023/08/21 03:15:15;;;;;;;2.87;2.07;;;22.30;99.90;;;22.54;67.65;101784.66;4949452;28;113598;-49
2023/08/21 03:17:41;;;;;;;2.50;1.80;;;22.20;99.90;;;22.55;68.51;101775.63;4948740;28;97294;-48
2023/08/21 03:20:07;;;;;;;1.77;1.65;;;22.30;99.90;;;22.57;68.37;101771.03;4950475;28;97303;-45
2023/08/21 03:22:33;;;;;;;2.23;1.97;;;22.30;99.90;;;22.60;68.07;101773.50;4952961;28;98468;-45
2023/08/21 03:24:59;;;;;;;4.15;2.33;;;22.40;99.90;;;22.64;68.11;101769.63;4951231;28;97505;-48
2023/08/21 03:27:25;;;;;;;2.73;2.00;;;22.50;99.90;;;22.65;68.12;101774.03;4952459;28;97373;-46
2023/08/21 03:29:51;;;;;;;3.65;2.10;;;22.50;99.90;;;22.63;66.47;101772.41;4954568;28;97504;-48
2023/08/21 03:32:17;;;;;;;3.23;2.50;;;22.40;99.90;;;22.55;67.39;101779.16;4953727;28;114051;-47
2023/08/21 03:34:43;;;;;;;1.67;1.27;;;22.30;99.90;;;22.56;68.35;101771.97;4952480;28;101087;-48
2023/08/21 03:37:10;;;;;;;3.03;2.07;;;22.30;99.90;;;22.58;68.19;101764.69;4952598;28;97289;-48
2023/08/21 03:39:36;;;;;;;1.90;1.70;;;22.40;99.90;;;22.60;68.23;101765.44;4953872;28;97231;-45
2023/08/21 03:42:02;;;;;;;2.15;1.95;;;22.40;99.90;;;22.63;67.91;101762.53;4954874;28;98687;-46
2023/08/21 03:44:27;;;;;;;2.03;1.70;;;22.50;99.90;;;22.66;67.84;101762.31;4949823;28;97238;-50
2023/08/21 03:46:53;;;;;;;4.90;2.53;;;22.60;99.90;;;22.69;66.79;101764.78;4953492;28;97563;-48
2023/08/21 03:49:19;;;;;;;2.53;2.33;;;22.50;99.90;;;22.65;66.31;101768.66;4953996;28;97486;-46
2023/08/21 03:51:45;;;;;;;3.38;2.08;;;22.50;99.90;;;22.63;67.87;101762.53;4951252;28;102184;-46
2023/08/21 03:54:11;;;;;;;3.10;1.90;;;22.40;99.90;;;22.62;68.05;101763.50;4952688;28;104309;-46
2023/08/21 03:56:37;;;;;;;2.17;1.80;;;22.40;99.90;;;22.61;67.97;101759.09;4954749;28;97086;-47
2023/08/21 03:59:03;;;;;;;2.50;2.23;;;22.40;99.90;;;22.63;68.22;101762.53;4953414;28;99614;-46
2023/08/21 04:01:28;;;;;;;1.83;1.65;;;22.40;99.90;;;22.64;68.16;101766.06;4951708;28;97586;-50
2023/08/21 04:03:54;;;;;;;4.43;1.97;;;22.40;99.90;;;22.60;67.25;101759.19;5022066;22;97504;-51
2023/08/21 04:06:20;;;;;;;4.77;2.60;;;22.40;99.90;;;22.53;66.65;101766.81;4935540;28;97537;-56
2023/08/21 04:08:46;;;;;;;3.72;2.50;;;22.30;99.90;;;22.49;68.11;101781.44;4938353;28;96991;-53
2023/08/21 04:11:12;;;;;;;3.17;2.13;;;22.20;99.90;;;22.46;68.20;101781.66;4931208;28;116092;-51
2023/08/21 04:13:37;;;;;;;4.43;1.95;;;22.10;99.90;;;22.47;68.74;101778.00;4927951;28;117934;-49
2023/08/21 04:16:03;;;;;;;3.00;1.50;;;22.10;99.90;;;22.49;68.66;101771.53;4934289;28;97462;-51
2023/08/21 04:18:29;;;;;;;3.60;1.73;;;22.20;99.90;;;22.52;68.67;101775.84;4927957;28;97307;-51
2023/08/21 04:20:55;;;;;;;5.03;2.57;;;22.30;99.90;;;22.53;68.04;101772.19;4931924;28;113483;-51
2023/08/21 04:23:20;;;;;;;4.60;2.20;;;22.30;99.90;;;22.54;68.47;101776.59;4928869;28;97350;-54
2023/08/21 04:25:46;;;;;;;4.55;2.45;;;22.30;99.90;;;22.48;67.32;101780.56;4930451;28;97788;-47
2023/08/21 04:28:12;;;;;;;4.07;2.77;;;22.20;99.90;;;22.40;67.60;101782.03;4930049;28;97376;-50
2023/08/21 04:30:41;;;;;;;1.75;1.65;;;22.10;99.90;;;22.46;68.75;101776.25;4932155;28;102638;-49
2023/08/21 04:33:07;;;;;;;1.87;1.70;;;22.20;99.90;;;22.49;68.63;101762.59;4927947;28;98157;-49
2023/08/21 04:35:38;;;;;;;3.88;2.40;;;22.30;99.90;;;22.52;67.38;101767.75;4930349;28;97556;-51
2023/08/21 04:38:04;;;;;;;2.97;2.30;;;22.30;99.90;;;22.50;67.84;101765.19;4930313;28;97557;-48
2023/08/21 04:40:30;;;;;;;3.87;2.40;;;22.20;99.90;;;22.49;67.94;101765.28;4931224;28;97055;-50
2023/08/21 04:42:56;;;;;;;4.23;2.37;;;22.20;99.90;;;22.46;67.78;101773.56;4922966;28;102389;-48
2023/08/21 04:45:21;;;;;;;7.67;2.50;;;22.20;99.90;;;22.42;67.63;101772.03;4928415;28;102492;-47
2023/08/21 04:47:47;;;;;;;3.10;2.30;;;22.10;99.90;;;22.37;68.11;101784.94;4933561;28;98009;-50
2023/08/21 04:50:13;;;;;;;3.55;2.17;;;22.00;99.90;;;22.39;68.92;101780.31;4931061;28;107708;-50
2023/08/21 04:52:39;;;;;;;4.77;2.80;;;22.10;99.90;;;22.44;69.14;101788.97;4915432;28;98257;-51
2023/08/21 04:55:06;;;;;;;2.77;2.40;;;22.20;99.90;;;22.42;68.67;101790.84;4930828;28;97176;-48
2023/08/21 04:57:32;;;;;;;4.20;2.08;;;22.20;99.90;;;22.36;68.46;101802.03;4926672;28;97446;-47
2023/08/21 04:59:58;;;;;;;4.00;2.40;;;22.10;99.90;;;22.36;68.53;101807.41;4931156;28;97420;-53
2023/08/21 05:02:24;;;;;;;6.10;2.70;;;22.10;99.90;;;22.36;69.00;101802.91;4932103;28;97355;-49
2023/08/21 05:04:49;;;;;;;1.77;1.47;;;22.10;99.90;;;22.40;68.99;101787.41;4934009;28;97563;-46
2023/08/21 05:07:15;;;;;;;2.23;1.73;;;22.20;99.90;;;22.42;68.99;101790.84;4925406;28;108650;-49
2023/08/21 05:09:41;;;;;;;2.37;1.50;;;22.30;99.90;;;22.46;68.82;101787.88;4932996;28;97938;-49
2023/08/21 05:12:08;;;;;;;3.90;2.10;;;22.40;99.90;;;22.49;67.42;101793.03;4927033;28;107523;-50
2023/08/21 05:14:34;;;;;;;4.83;2.80;;;22.40;99.90;;;22.50;67.43;101800.13;4930783;28;97402;-47
2023/08/21 05:17:00;;;;;;;4.47;2.60;;;22.30;99.90;;;22.52;67.43;101803.59;4928077;28;100147;-48
2023/08/21 05:19:26;;;;;;;3.60;2.60;;;22.30;99.90;;;22.53;67.95;101799.06;4928110;28;97343;-50
2023/08/21 05:21:51;;;;;;;1.97;1.77;;;22.30;99.90;;;22.55;68.04;101797.13;4928744;28;114602;-50
2023/08/21 05:24:17;;;;;;;1.73;1.57;;;22.30;99.90;;;22.58;68.15;101796.94;4931670;28;97203;-51
2023/08/21 05:26:43;;;;;;;4.30;2.83;;;22.40;99.90;;;22.61;67.77;101804.78;4926535;28;103473;-51
2023/08/21 05:29:09;;;;;;;3.27;2.20;;;22.40;99.90;;;22.61;68.11;101804.78;4928856;28;97136;-53
2023/08/21 05:31:34;;;;;;;3.10;2.50;;;22.40;99.90;;;22.61;68.09;101803.94;4923272;28;125897;-53
2023/08/21 05:34:00;;;;;;;3.63;2.55;;;22.40;99.90;;;22.62;68.25;101805.66;4929880;28;103542;-52
2023/08/21 05:36:26;;;;;;;3.97;2.05;;;22.40;99.90;;;22.60;68.26;101805.75;4925460;28;97251;-47
2023/08/21 05:38:52;;;;;;;4.80;2.67;;;22.40;99.90;;;22.61;68.33;101810.16;4922334;28;102154;-53
2023/08/21 05:41:18;;;;;;;3.30;2.47;;;22.40;99.90;;;22.59;68.37;101809.41;4934777;28;96894;-49
2023/08/21 05:43:45;;;;;;;2.92;2.40;;;22.40;99.90;;;22.60;68.48;101805.75;4921944;28;97763;-47
2023/08/21 05:46:11;;;;;;;3.27;2.20;;;22.40;99.90;;;22.59;68.54;101809.41;4929510;28;97505;-50
2023/08/21 05:48:37;;;;;;;6.28;2.63;;;22.40;99.90;;;22.57;68.76;101811.34;4920505;28;99119;-51
2023/08/21 05:51:03;;;;;;;5.73;2.80;;;22.30;99.90;;;22.58;68.72;101805.00;4930691;28;97635;-46
2023/08/21 05:53:29;;;;;;;4.90;2.97;;;22.30;99.90;;;22.56;68.78;101809.59;4927736;28;97404;-50
2023/08/21 05:55:55;;;;;;;6.72;3.13;;;22.40;99.90;;;22.56;68.72;101817.66;4923821;28;99534;-50
2023/08/21 05:58:21;;;;;;;5.53;3.15;;;22.30;99.90;;;22.56;68.80;101814.97;4924249;28;98851;-53
2023/08/21 06:00:47;;;;;;;3.20;2.83;;;22.30;99.90;;;22.56;68.89;101825.72;4930678;28;102428;-46
2023/08/21 06:03:13;;;;;;;3.60;2.53;;;22.30;99.90;;;22.56;69.26;101820.34;4925579;28;97356;-49
2023/08/21 06:05:39;;;;;;;5.77;2.60;;;22.30;99.90;;;22.53;69.09;101825.94;4927650;28;97553;-50
2023/08/21 06:08:05;;;;;;;5.93;2.73;;;22.30;99.90;;;22.55;69.38;101826.72;4927644;28;109528;-49
2023/08/21 06:10:32;;;;;;;7.07;3.10;;;22.30;99.90;;;22.58;68.72;101823.84;4935262;28;97159;-50
2023/08/21 06:12:57;;;;;;;4.30;2.75;;;22.30;99.90;;;22.61;69.27;101829.00;4926756;28;98888;-48
2023/08/21 06:15:23;;;;;;;4.30;2.55;;;22.40;99.90;;;22.64;68.80;101825.22;4930299;28;97273;-51
2023/08/21 06:17:49;;;;;;;4.80;3.07;;;22.40;99.90;;;22.64;69.14;101825.22;4927565;28;109958;-51
2023/08/21 06:20:15;;;;;;;4.60;2.72;;;22.40;99.90;;;22.64;69.21;101827.91;4931159;28;97197;-48
2023/08/21 06:22:41;;;;;;;5.15;3.00;;;22.40;99.90;;;22.64;69.66;101823.41;4923252;28;107296;-48
2023/08/21 06:25:08;;;;;;;3.50;2.85;;;22.40;99.90;;;22.65;69.97;101824.25;4923328;28;97358;-47
2023/08/21 06:27:34;;;;;;;3.97;2.53;;;22.40;99.90;;;22.66;68.71;101826.84;4927850;28;123858;-47
2023/08/21 06:30:00;;;;;;;4.43;2.88;;;22.50;99.90;;;22.66;69.18;101834.91;4926922;28;115746;-49
2023/08/21 06:32:26;;;;;;;4.18;3.22;;;22.50;99.90;;;22.68;69.11;101835.66;4924087;28;104908;-49
2023/08/21 06:34:52;;;;;;;3.88;2.97;;;22.50;99.90;;;22.71;70.03;101840.88;4928892;28;109619;-50
2023/08/21 06:37:18;;;;;;;5.43;2.95;;;22.60;99.90;;;22.73;69.94;101836.22;4922807;28;118659;-47
2023/08/21 06:39:45;;;;;;;3.43;3.13;;;22.60;99.90;;;22.73;70.94;101838.06;4920807;28;103585;-49
2023/08/21 06:42:11;;;;;;;4.38;3.35;;;22.50;99.90;;;22.67;70.86;101844.69;4915405;28;97660;-53
2023/08/21 06:44:37;;;;;;;5.60;3.45;;;22.50;99.90;;;22.70;69.90;101838.25;4922305;28;96821;-52
2023/08/21 06:47:03;;;;;;;11.25;3.45;;;22.50;99.90;;;22.71;69.65;101835.47;4929478;28;107938;-50
2023/08/21 06:49:29;;;;;;;5.47;3.35;;;22.60;99.90;;;22.73;69.42;101838.94;4928533;28;98125;-50
2023/08/21 06:51:54;;;;;;;7.60;3.75;;;22.60;99.90;;;22.73;68.84;101836.22;4925773;28;97193;-50
2023/08/21 06:54:20;;;;;;;5.38;3.42;;;22.50;99.90;;;22.76;68.55;101830.63;4930211;28;97117;-47
2023/08/21 06:56:46;;;;;;;5.55;3.20;;;22.60;99.90;;;22.77;68.88;101828.81;4925516;28;115150;-50
2023/08/21 06:59:12;;;;;;;6.65;3.05;;;22.60;99.90;;;22.76;68.88;101833.31;4931097;28;106630;-49
2023/08/21 07:01:37;;;;;;;5.13;3.35;;;22.60;99.90;;;22.79;69.16;101835.81;4926966;28;97035;-53
2023/08/21 07:04:03;;;;;;;4.43;3.45;;;22.60;99.90;;;22.77;69.74;101829.66;4922437;28;97546;-51
2023/08/21 07:06:31;;;;;;;6.75;4.00;;;22.60;99.90;;;22.79;69.52;101826.88;4951668;28;99631;-47
2023/08/21 07:08:56;;;;;;;7.15;4.22;;;22.60;99.90;;;22.81;69.54;101831.19;4921680;28;96904;-53
2023/08/21 07:11:22;;;;;;;5.75;3.75;;;22.60;99.90;;;22.82;69.70;101824.84;4926853;28;97131;-50
2023/08/21 07:13:49;;;;;;;6.20;3.90;;;22.70;99.90;;;22.84;69.87;101824.75;4931471;28;97659;-49
2023/08/21 07:16:15;;;;;;;10.35;5.95;;;22.70;99.90;;;22.84;69.99;101825.59;4926878;28;102198;-46
2023/08/21 07:18:40;;;;;;;7.50;5.20;;;22.70;99.90;;;22.86;68.51;101833.59;4925427;28;101571;-51
2023/08/21 07:21:06;;;;;;;2.63;1.95;;;22.70;99.90;;;22.84;67.53;101828.31;4923347;28;102250;-52
2023/08/21 07:23:33;;;;;;;8.23;4.80;;;22.80;99.90;;;22.90;69.48;101823.47;4922665;28;97435;-49
2023/08/21 07:26:00;;;;;;;8.05;5.18;;;22.80;99.90;;;22.91;69.19;101841.34;4923285;28;97496;-48
2023/08/21 07:28:26;;;;;;;6.05;4.78;;;22.80;99.90;;;22.94;69.20;101838.44;4926663;28;98307;-52
2023/08/21 07:30:57;;;;;;;8.57;5.05;;;22.80;99.90;;;22.96;68.86;101833.81;4924849;28;97262;-52
2023/08/21 07:33:26;;;;;;;5.85;4.13;;;22.90;99.90;;;23.00;68.73;101848.75;4920103;28;99818;-46
2023/08/21 07:36:04;;;;;;;9.05;5.22;;;22.90;99.90;;;23.02;68.47;101841.47;4924164;28;108974;-56
2023/08/21 07:38:30;;;;;;;8.10;5.30;;;22.90;99.90;;;23.04;68.41;101843.09;4918536;28;97435;-53
2023/08/21 07:41:10;;;;;;;7.80;5.30;;;23.00;99.90;;;23.11;70.22;101840.81;4920184;28;97395;-50
2023/08/21 07:43:38;;;;;;;7.38;5.35;;;23.00;99.90;;;23.11;70.02;101848.88;4921328;28;97405;-50
2023/08/21 07:46:06;;;;;;;9.27;5.80;;;23.10;99.90;;;23.11;69.79;101849.75;4923239;28;97712;-47
2023/08/21 07:48:32;;;;;;;9.50;5.40;;;23.10;99.90;;;23.15;69.68;101850.41;4920276;28;98300;-50
2023/08/21 07:50:58;;;;;;;6.50;4.65;;;23.10;99.90;;;23.15;68.47;101850.41;4920482;28;97848;-51
2023/08/21 07:53:26;;;;;;;7.35;4.25;;;23.10;99.90;;;23.16;69.08;101854.84;4924077;28;96988;-48
2023/08/21 07:55:52;;;;;;;9.35;4.88;;;23.10;99.90;;;23.20;69.41;101842.88;4912863;28;97295;-49
2023/08/21 07:58:19;;;;;;;6.55;4.70;;;23.10;99.90;;;23.20;69.90;101845.56;4931921;28;100204;-50
2023/08/21 08:00:45;;;;;;;8.32;5.10;;;23.20;99.90;;;23.22;69.04;101840.94;4924287;28;97278;-48
2023/08/21 08:03:14;;;;;;;5.65;4.38;;;23.20;99.90;;;23.24;69.88;101843.50;4920150;28;97540;-52
2023/08/21 08:05:41;;;;;;;6.18;4.63;;;23.20;99.90;;;23.26;68.18;101847.81;4920871;28;98739;-48
2023/08/21 08:08:07;;;;;;;7.80;4.43;;;23.20;99.90;;;23.28;69.65;101845.88;4928376;28;97004;-52
2023/08/21 08:10:33;;;;;;;7.75;5.22;;;23.30;99.90;;;23.29;68.24;101844.94;4923398;28;97253;-52
2023/08/21 08:12:59;;;;;;;7.97;4.30;;;23.30;99.90;;;23.31;69.29;101853.75;4930343;28;97221;-50
2023/08/21 08:15:25;;;;;;;11.65;4.28;;;23.30;99.90;;;23.33;68.81;101849.13;4928640;28;110246;-53
2023/08/21 08:17:54;;;;;;;7.35;4.03;;;23.40;99.90;;;23.36;68.55;101854.28;4931068;28;110202;-49
2023/08/21 08:20:20;;;;;;;6.38;4.55;;;23.40;99.90;;;23.39;70.03;101855.91;4932864;28;97429;-51
2023/08/21 08:22:46;;;;;;;7.20;3.92;;;23.40;99.90;;;23.40;68.90;101857.59;4932016;28;97048;-51
2023/08/21 08:25:13;;;;;;;4.10;3.65;;;23.40;99.90;;;23.42;68.52;101858.34;4926339;28;103258;-53
2023/08/21 08:27:39;;;;;;;11.15;4.53;;;23.40;99.90;;;23.43;67.87;101855.59;4926180;28;96844;-52
2023/08/21 08:30:06;;;;;;;6.30;3.85;;;23.50;99.90;;;23.45;67.42;101859.03;4929617;28;96922;-49
2023/08/21 08:32:32;;;;;;;7.63;5.15;;;23.50;99.90;;;23.47;66.85;101855.38;4921878;28;97078;-49
2023/08/21 08:34:57;;;;;;;4.45;3.90;;;23.50;99.90;;;23.47;67.74;101855.38;4937161;28;97432;-53
2023/08/21 08:37:23;;;;;;;6.75;4.28;;;23.40;99.90;;;23.50;67.84;101856.00;4923653;28;97275;-51
2023/08/21 08:39:49;;;;;;;6.95;4.45;;;23.50;99.90;;;23.48;66.29;101851.69;4928338;28;96970;-55
2023/08/21 08:42:15;;;;;;;13.32;5.47;;;23.50;99.90;;;23.49;68.16;101848.03;4929129;28;97422;-53
2023/08/21 08:44:43;;;;;;;9.18;5.72;;;23.50;99.90;;;23.48;67.89;101851.69;4927610;28;99679;-52
2023/08/21 08:47:11;;;;;;;10.18;5.25;;;23.50;99.90;;;23.53;68.39;101854.91;4929367;28;98056;-51
2023/08/21 08:49:37;;;;;;;7.07;3.90;;;23.50;99.90;;;23.53;66.81;101845.00;4926060;28;97131;-49
2023/08/21 08:52:04;;;;;;;7.97;4.53;;;23.50;99.90;;;23.51;67.44;101846.09;4926414;28;97032;-53
2023/08/21 08:54:31;;;;;;;9.10;5.18;;;23.50;99.90;;;23.48;68.04;101846.31;4923475;28;96942;-49
2023/08/21 08:56:58;;;;;;;9.73;5.65;;;23.50;99.90;;;23.49;67.52;101848.91;4929879;28;99839;-51
2023/08/21 08:59:24;;;;;;;11.40;6.10;;;23.50;99.90;;;23.54;68.26;101854.81;4931586;28;97319;-52
2023/08/21 09:01:50;;;;;;;5.13;4.30;;;23.60;99.90;;;23.52;66.78;101847.81;4934307;28;97363;-52
2023/08/21 09:04:16;;;;;;;10.05;4.70;;;23.60;99.90;;;23.59;67.02;101854.53;4938970;28;98106;-49
2023/08/21 09:06:42;;;;;;;7.63;4.80;;;23.60;99.90;;;23.60;68.06;101850.88;4929857;28;97494;-51
2023/08/21 09:09:10;;;;;;;5.25;3.85;;;23.60;99.90;;;23.60;66.01;101856.25;4926906;28;97429;-48
2023/08/21 09:11:42;;;;;;;11.68;6.30;;;23.60;99.90;;;23.65;67.47;101859.47;4928306;28;97575;-54
2023/08/21 09:14:09;;;;;;;8.32;5.38;;;23.70;99.90;;;23.70;67.35;101858.16;4926943;28;97482;-52
2023/08/21 09:16:35;;;;;;;6.70;4.30;;;23.70;99.90;;;23.72;66.28;101861.63;4929163;28;97052;-53
2023/08/21 09:19:01;;;;;;;7.38;4.53;;;23.80;99.90;;;23.73;67.00;101863.34;4922619;28;102671;-52
2023/08/21 09:21:28;;;;;;;6.28;4.78;;;23.80;99.90;;;23.77;67.06;101861.28;4931703;28;99570;-52
2023/08/21 09:24:00;;;;;;;5.28;3.97;;;23.80;99.90;;;23.77;66.64;101857.72;4923567;28;97570;-53
2023/08/21 09:26:26;;;;;;;6.60;4.03;;;23.80;99.90;;;23.74;67.51;101856.13;4927312;28;98110;-50
2023/08/21 09:28:54;;;;;;;8.10;4.47;;;23.80;99.90;;;23.84;67.43;101858.97;4925043;28;97019;-53
2023/08/21 09:31:24;;;;;;;3.75;2.58;;;23.80;99.90;;;23.79;65.82;101856.63;4941325;28;96702;-52
2023/08/21 09:34:04;;;;;;;7.55;5.30;;;23.90;99.90;;;23.83;66.38;101860.81;4922745;28;102962;-51
2023/08/21 09:36:31;;;;;;;7.30;5.22;;;23.90;99.90;;;23.81;65.57;101853.81;4936231;28;101059;-49
2023/08/21 09:38:57;;;;;;;7.82;5.22;;;23.90;99.90;;;23.86;66.99;101854.34;4924006;28;96966;-49
2023/08/21 09:41:25;;;;;;;9.80;5.72;;;23.90;99.90;;;23.91;65.36;101855.75;4931639;28;98607;-54
2023/08/21 09:43:51;;;;;;;7.47;5.47;;;24.00;99.90;;;23.93;65.49;101858.31;4927998;28;98775;-49
2023/08/21 09:46:24;;;;;;;7.57;4.72;;;24.00;99.90;;;23.92;64.59;101852.06;4936075;28;104020;-52
2023/08/21 09:48:52;;;;;;;10.77;5.05;;;24.00;99.90;;;24.01;66.14;101851.41;4936804;28;102210;-47
2023/08/21 09:51:18;;;;;;;7.38;4.88;;;24.10;99.90;;;24.01;65.15;101840.63;4925145;28;97168;-50
2023/08/21 09:53:45;;;;;;;7.15;4.38;;;24.10;99.90;;;23.97;64.45;101843.66;4923806;28;97631;-48
2023/08/21 09:56:12;;;;;;;7.65;3.55;;;24.10;99.90;;;23.91;64.34;101844.97;4929053;28;98188;-46
2023/08/21 09:58:38;;;;;;;7.38;4.93;;;24.00;99.90;;;23.95;66.13;101849.16;4933333;28;97624;-51
2023/08/21 10:01:13;;;;;;;5.53;4.10;;;24.00;99.90;;;23.87;64.51;101840.78;4930923;28;97809;-49
2023/08/21 10:03:44;;;;;;;9.50;5.22;;;24.00;99.90;;;23.93;64.59;101843.00;4927929;28;97161;-49
2023/08/21 10:06:11;;;;;;;6.60;4.57;;;24.00;99.90;;;23.93;64.58;101834.94;4925670;28;97643;-51
2023/08/21 10:08:41;;;;;;;8.95;4.93;;;24.10;99.90;;;23.92;66.14;101835.91;4925241;28;97478;-49